sensor_id;sensor_type;location;lat;lon;timestamp;P1;durP1;ratioP1;P2;durP2;ratioP2
13406;SDS011;6774;48.208;10.766;2022-12-07T00:01:07;3.23;;;2.93;;
13406;SDS011;6774;48.208;10.766;2022-12-07T00:03:36;4.10;;;3.80;;
13406;SDS011;6774;48.208;10.766;2022-12-07T00:06:05;3.77;;;3.57;;
13406;SDS011;6774;48.208;10.766;2022-12-07T00:08:34;4.20;;;3.43;;
13406;SDS011;6774;48.208;10.766;2022-12-07T00:11:03;4.43;;;4.00;;
13406;SDS011;6774;48.208;10.766;2022-12-07T00:13:33;5.60;;;3.73;;
13406;SDS011;6774;48.208;10.766;2022-12-07T00:16:02;3.57;;;3.27;;
13406;SDS011;6774;48.208;10.766;2022-12-07T00:18:33;4.53;;;4.13;;
13406;SDS011;6774;48.208;10.766;2022-12-07T00:21:01;3.80;;;3.53;;
13406;SDS011;6774;48.208;10.766;2022-12-07T00:23:29;4.27;;;3.97;;
13406;SDS011;6774;48.208;10.766;2022-12-07T00:26:02;5.30;;;4.90;;
13406;SDS011;6774;48.208;10.766;2022-12-07T00:28:31;4.70;;;4.30;;
13406;SDS011;6774;48.208;10.766;2022-12-07T00:31:01;4.27;;;3.97;;
13406;SDS011;6774;48.208;10.766;2022-12-07T00:33:30;5.40;;;4.90;;
13406;SDS011;6774;48.208;10.766;2022-12-07T00:36:00;4.00;;;3.70;;
13406;SDS011;6774;48.208;10.766;2022-12-07T00:38:29;6.13;;;4.97;;
13406;SDS011;6774;48.208;10.766;2022-12-07T00:40:59;5.33;;;5.00;;
13406;SDS011;6774;48.208;10.766;2022-12-07T00:43:28;4.00;;;3.70;;
13406;SDS011;6774;48.208;10.766;2022-12-07T00:45:57;4.80;;;4.43;;
13406;SDS011;6774;48.208;10.766;2022-12-07T00:48:25;4.77;;;4.37;;
13406;SDS011;6774;48.208;10.766;2022-12-07T00:50:53;5.13;;;4.80;;
13406;SDS011;6774;48.208;10.766;2022-12-07T00:53:23;4.90;;;4.50;;
13406;SDS011;6774;48.208;10.766;2022-12-07T00:55:51;4.90;;;4.50;;
13406;SDS011;6774;48.208;10.766;2022-12-07T00:58:19;4.00;;;3.70;;
13406;SDS011;6774;48.208;10.766;2022-12-07T01:00:47;5.33;;;4.87;;
13406;SDS011;6774;48.208;10.766;2022-12-07T01:03:15;4.50;;;4.10;;
13406;SDS011;6774;48.208;10.766;2022-12-07T01:05:50;4.43;;;4.23;;
13406;SDS011;6774;48.208;10.766;2022-12-07T01:08:19;5.63;;;5.23;;
13406;SDS011;6774;48.208;10.766;2022-12-07T01:10:49;4.70;;;4.30;;
13406;SDS011;6774;48.208;10.766;2022-12-07T01:13:24;4.60;;;4.30;;
13406;SDS011;6774;48.208;10.766;2022-12-07T01:15:51;4.90;;;4.50;;
13406;SDS011;6774;48.208;10.766;2022-12-07T01:18:23;4.23;;;3.93;;
13406;SDS011;6774;48.208;10.766;2022-12-07T01:20:57;3.50;;;3.30;;
13406;SDS011;6774;48.208;10.766;2022-12-07T01:23:25;4.63;;;4.23;;
13406;SDS011;6774;48.208;10.766;2022-12-07T01:25:55;3.93;;;3.63;;
13406;SDS011;6774;48.208;10.766;2022-12-07T01:28:24;5.07;;;4.67;;
13406;SDS011;6774;48.208;10.766;2022-12-07T01:30:55;3.93;;;3.63;;
13406;SDS011;6774;48.208;10.766;2022-12-07T01:33:26;4.20;;;3.50;;
13406;SDS011;6774;48.208;10.766;2022-12-07T01:35:55;4.43;;;4.03;;
13406;SDS011;6774;48.208;10.766;2022-12-07T01:38:28;4.00;;;3.70;;
13406;SDS011;6774;48.208;10.766;2022-12-07T01:40:58;5.50;;;5.00;;
13406;SDS011;6774;48.208;10.766;2022-12-07T01:43:28;3.97;;;3.70;;
13406;SDS011;6774;48.208;10.766;2022-12-07T01:45:57;5.83;;;5.33;;
13406;SDS011;6774;48.208;10.766;2022-12-07T01:48:27;3.63;;;3.40;;
13406;SDS011;6774;48.208;10.766;2022-12-07T01:50:59;4.83;;;3.83;;
13406;SDS011;6774;48.208;10.766;2022-12-07T01:53:31;3.77;;;3.57;;
13406;SDS011;6774;48.208;10.766;2022-12-07T01:56:04;4.37;;;4.07;;
13406;SDS011;6774;48.208;10.766;2022-12-07T01:58:35;4.17;;;3.87;;
13406;SDS011;6774;48.208;10.766;2022-12-07T02:01:04;4.50;;;3.53;;
13406;SDS011;6774;48.208;10.766;2022-12-07T02:03:34;4.87;;;4.53;;
13406;SDS011;6774;48.208;10.766;2022-12-07T02:06:06;4.83;;;4.43;;
13406;SDS011;6774;48.208;10.766;2022-12-07T02:08:35;4.00;;;3.70;;
13406;SDS011;6774;48.208;10.766;2022-12-07T02:11:04;3.40;;;3.20;;
13406;SDS011;6774;48.208;10.766;2022-12-07T02:13:35;3.33;;;3.13;;
13406;SDS011;6774;48.208;10.766;2022-12-07T02:16:10;3.77;;;3.47;;
13406;SDS011;6774;48.208;10.766;2022-12-07T02:18:48;4.90;;;4.57;;
13406;SDS011;6774;48.208;10.766;2022-12-07T02:21:29;5.17;;;4.77;;
13406;SDS011;6774;48.208;10.766;2022-12-07T02:24:11;3.63;;;3.43;;
13406;SDS011;6774;48.208;10.766;2022-12-07T02:26:47;4.67;;;3.97;;
13406;SDS011;6774;48.208;10.766;2022-12-07T02:29:44;4.10;;;3.80;;
13406;SDS011;6774;48.208;10.766;2022-12-07T02:32:18;3.93;;;3.63;;
13406;SDS011;6774;48.208;10.766;2022-12-07T02:34:53;4.63;;;4.33;;
13406;SDS011;6774;48.208;10.766;2022-12-07T02:37:29;4.20;;;3.90;;
13406;SDS011;6774;48.208;10.766;2022-12-07T02:40:05;3.90;;;3.60;;
13406;SDS011;6774;48.208;10.766;2022-12-07T02:42:40;4.90;;;4.60;;
13406;SDS011;6774;48.208;10.766;2022-12-07T02:45:13;4.63;;;4.23;;
13406;SDS011;6774;48.208;10.766;2022-12-07T02:47:45;6.00;;;5.50;;
13406;SDS011;6774;48.208;10.766;2022-12-07T02:50:18;6.10;;;5.50;;
13406;SDS011;6774;48.208;10.766;2022-12-07T02:52:48;6.57;;;6.00;;
13406;SDS011;6774;48.208;10.766;2022-12-07T02:55:17;5.87;;;5.43;;
13406;SDS011;6774;48.208;10.766;2022-12-07T02:57:53;4.23;;;3.93;;
13406;SDS011;6774;48.208;10.766;2022-12-07T03:00:32;5.30;;;4.90;;
13406;SDS011;6774;48.208;10.766;2022-12-07T03:03:09;6.00;;;5.47;;
13406;SDS011;6774;48.208;10.766;2022-12-07T03:05:49;5.80;;;5.33;;
13406;SDS011;6774;48.208;10.766;2022-12-07T03:08:29;5.90;;;5.37;;
13406;SDS011;6774;48.208;10.766;2022-12-07T03:11:03;4.37;;;3.80;;
13406;SDS011;6774;48.208;10.766;2022-12-07T03:13:34;5.37;;;4.97;;
13406;SDS011;6774;48.208;10.766;2022-12-07T03:16:12;8.30;;;5.97;;
13406;SDS011;6774;48.208;10.766;2022-12-07T03:18:44;5.10;;;4.70;;
13406;SDS011;6774;48.208;10.766;2022-12-07T03:21:18;6.20;;;5.77;;
13406;SDS011;6774;48.208;10.766;2022-12-07T03:23:51;5.67;;;5.17;;
13406;SDS011;6774;48.208;10.766;2022-12-07T03:26:24;5.23;;;4.87;;
13406;SDS011;6774;48.208;10.766;2022-12-07T03:28:59;7.37;;;6.77;;
13406;SDS011;6774;48.208;10.766;2022-12-07T03:31:37;5.03;;;4.57;;
13406;SDS011;6774;48.208;10.766;2022-12-07T03:34:10;6.37;;;5.93;;
13406;SDS011;6774;48.208;10.766;2022-12-07T03:36:44;5.00;;;4.60;;
13406;SDS011;6774;48.208;10.766;2022-12-07T03:39:20;5.87;;;5.37;;
13406;SDS011;6774;48.208;10.766;2022-12-07T03:41:51;5.17;;;4.73;;
13406;SDS011;6774;48.208;10.766;2022-12-07T03:44:20;4.93;;;4.63;;
13406;SDS011;6774;48.208;10.766;2022-12-07T03:46:52;6.50;;;6.07;;
13406;SDS011;6774;48.208;10.766;2022-12-07T03:49:30;5.27;;;4.87;;
13406;SDS011;6774;48.208;10.766;2022-12-07T03:52:07;5.40;;;4.10;;
13406;SDS011;6774;48.208;10.766;2022-12-07T03:54:40;5.60;;;5.17;;
13406;SDS011;6774;48.208;10.766;2022-12-07T03:57:15;5.27;;;4.87;;
13406;SDS011;6774;48.208;10.766;2022-12-07T04:00:03;4.23;;;3.93;;
13406;SDS011;6774;48.208;10.766;2022-12-07T04:02:41;5.20;;;4.77;;
13406;SDS011;6774;48.208;10.766;2022-12-07T04:05:10;5.67;;;5.23;;
13406;SDS011;6774;48.208;10.766;2022-12-07T04:07:39;5.13;;;4.83;;
13406;SDS011;6774;48.208;10.766;2022-12-07T04:10:08;5.93;;;5.53;;
13406;SDS011;6774;48.208;10.766;2022-12-07T04:12:36;5.03;;;4.63;;
13406;SDS011;6774;48.208;10.766;2022-12-07T04:15:05;6.43;;;5.77;;
13406;SDS011;6774;48.208;10.766;2022-12-07T04:17:33;6.40;;;5.90;;
13406;SDS011;6774;48.208;10.766;2022-12-07T04:20:04;5.27;;;4.83;;
13406;SDS011;6774;48.208;10.766;2022-12-07T04:22:34;6.87;;;6.40;;
13406;SDS011;6774;48.208;10.766;2022-12-07T04:25:02;5.60;;;5.10;;
13406;SDS011;6774;48.208;10.766;2022-12-07T04:27:30;5.93;;;5.43;;
13406;SDS011;6774;48.208;10.766;2022-12-07T04:29:58;4.97;;;4.57;;
13406;SDS011;6774;48.208;10.766;2022-12-07T04:32:27;5.43;;;5.03;;
13406;SDS011;6774;48.208;10.766;2022-12-07T04:34:55;6.47;;;5.87;;
13406;SDS011;6774;48.208;10.766;2022-12-07T04:37:24;6.37;;;5.77;;
13406;SDS011;6774;48.208;10.766;2022-12-07T04:39:52;6.40;;;5.93;;
13406;SDS011;6774;48.208;10.766;2022-12-07T04:42:20;5.80;;;5.40;;
13406;SDS011;6774;48.208;10.766;2022-12-07T04:44:48;7.40;;;5.53;;
13406;SDS011;6774;48.208;10.766;2022-12-07T04:47:17;5.47;;;4.87;;
13406;SDS011;6774;48.208;10.766;2022-12-07T04:49:45;6.73;;;6.13;;
13406;SDS011;6774;48.208;10.766;2022-12-07T04:52:12;6.47;;;5.87;;
13406;SDS011;6774;48.208;10.766;2022-12-07T04:54:41;5.83;;;5.33;;
13406;SDS011;6774;48.208;10.766;2022-12-07T04:57:09;5.23;;;4.77;;
13406;SDS011;6774;48.208;10.766;2022-12-07T04:59:37;6.83;;;6.33;;
13406;SDS011;6774;48.208;10.766;2022-12-07T05:02:10;6.53;;;6.03;;
13406;SDS011;6774;48.208;10.766;2022-12-07T05:04:39;5.83;;;5.43;;
13406;SDS011;6774;48.208;10.766;2022-12-07T05:07:06;5.47;;;5.07;;
13406;SDS011;6774;48.208;10.766;2022-12-07T05:09:34;6.23;;;5.73;;
13406;SDS011;6774;48.208;10.766;2022-12-07T05:12:04;4.73;;;4.40;;
13406;SDS011;6774;48.208;10.766;2022-12-07T05:14:32;5.50;;;5.10;;
13406;SDS011;6774;48.208;10.766;2022-12-07T05:17:00;5.93;;;5.50;;
13406;SDS011;6774;48.208;10.766;2022-12-07T05:19:28;7.20;;;6.53;;
13406;SDS011;6774;48.208;10.766;2022-12-07T05:21:56;4.70;;;4.40;;
13406;SDS011;6774;48.208;10.766;2022-12-07T05:24:24;6.97;;;6.37;;
13406;SDS011;6774;48.208;10.766;2022-12-07T05:26:53;6.20;;;5.60;;
13406;SDS011;6774;48.208;10.766;2022-12-07T05:29:22;5.93;;;5.43;;
13406;SDS011;6774;48.208;10.766;2022-12-07T05:31:50;5.80;;;5.27;;
13406;SDS011;6774;48.208;10.766;2022-12-07T05:34:18;5.80;;;5.30;;
13406;SDS011;6774;48.208;10.766;2022-12-07T05:36:46;7.70;;;6.83;;
13406;SDS011;6774;48.208;10.766;2022-12-07T05:39:14;7.17;;;6.60;;
13406;SDS011;6774;48.208;10.766;2022-12-07T05:41:41;5.90;;;5.43;;
13406;SDS011;6774;48.208;10.766;2022-12-07T05:44:29;5.27;;;4.87;;
13406;SDS011;6774;48.208;10.766;2022-12-07T05:46:57;5.73;;;5.27;;
13406;SDS011;6774;48.208;10.766;2022-12-07T05:49:25;4.57;;;4.23;;
13406;SDS011;6774;48.208;10.766;2022-12-07T05:51:52;5.80;;;5.30;;
13406;SDS011;6774;48.208;10.766;2022-12-07T05:54:20;4.97;;;4.57;;
13406;SDS011;6774;48.208;10.766;2022-12-07T05:56:48;6.20;;;5.70;;
13406;SDS011;6774;48.208;10.766;2022-12-07T05:59:16;7.23;;;6.63;;
13406;SDS011;6774;48.208;10.766;2022-12-07T06:01:50;5.70;;;5.23;;
13406;SDS011;6774;48.208;10.766;2022-12-07T06:04:19;6.57;;;6.03;;
13406;SDS011;6774;48.208;10.766;2022-12-07T06:06:48;5.83;;;5.33;;
13406;SDS011;6774;48.208;10.766;2022-12-07T06:09:16;5.40;;;4.90;;
13406;SDS011;6774;48.208;10.766;2022-12-07T06:11:45;5.87;;;5.30;;
13406;SDS011;6774;48.208;10.766;2022-12-07T06:14:31;5.93;;;5.47;;
13406;SDS011;6774;48.208;10.766;2022-12-07T06:17:00;6.00;;;5.40;;
13406;SDS011;6774;48.208;10.766;2022-12-07T06:19:28;9.00;;;6.33;;
13406;SDS011;6774;48.208;10.766;2022-12-07T06:21:57;5.40;;;4.90;;
13406;SDS011;6774;48.208;10.766;2022-12-07T06:24:25;6.67;;;6.00;;
13406;SDS011;6774;48.208;10.766;2022-12-07T06:26:53;6.30;;;5.83;;
13406;SDS011;6774;48.208;10.766;2022-12-07T06:29:20;7.33;;;6.67;;
13406;SDS011;6774;48.208;10.766;2022-12-07T06:31:48;6.97;;;6.37;;
13406;SDS011;6774;48.208;10.766;2022-12-07T06:34:18;8.73;;;8.03;;
13406;SDS011;6774;48.208;10.766;2022-12-07T06:36:48;7.93;;;7.30;;
13406;SDS011;6774;48.208;10.766;2022-12-07T06:39:18;7.20;;;6.60;;
13406;SDS011;6774;48.208;10.766;2022-12-07T06:41:46;6.80;;;6.30;;
13406;SDS011;6774;48.208;10.766;2022-12-07T06:44:14;8.90;;;8.00;;
13406;SDS011;6774;48.208;10.766;2022-12-07T06:46:42;7.80;;;7.00;;
13406;SDS011;6774;48.208;10.766;2022-12-07T06:49:10;7.03;;;6.53;;
13406;SDS011;6774;48.208;10.766;2022-12-07T06:51:40;7.67;;;6.97;;
13406;SDS011;6774;48.208;10.766;2022-12-07T06:54:08;8.37;;;7.67;;
13406;SDS011;6774;48.208;10.766;2022-12-07T06:56:37;8.60;;;7.67;;
13406;SDS011;6774;48.208;10.766;2022-12-07T06:59:05;9.03;;;8.07;;
13406;SDS011;6774;48.208;10.766;2022-12-07T07:01:34;9.37;;;8.47;;
13406;SDS011;6774;48.208;10.766;2022-12-07T07:04:02;7.23;;;6.70;;
13406;SDS011;6774;48.208;10.766;2022-12-07T07:06:30;7.23;;;6.57;;
13406;SDS011;6774;48.208;10.766;2022-12-07T07:09:00;8.57;;;7.77;;
13406;SDS011;6774;48.208;10.766;2022-12-07T07:11:28;8.97;;;8.13;;
13406;SDS011;6774;48.208;10.766;2022-12-07T07:13:55;7.93;;;7.23;;
13406;SDS011;6774;48.208;10.766;2022-12-07T07:16:28;7.80;;;7.10;;
13406;SDS011;6774;48.208;10.766;2022-12-07T07:18:57;9.00;;;8.10;;
13406;SDS011;6774;48.208;10.766;2022-12-07T07:21:26;7.23;;;6.63;;
13406;SDS011;6774;48.208;10.766;2022-12-07T07:23:54;9.17;;;8.10;;
13406;SDS011;6774;48.208;10.766;2022-12-07T07:26:24;9.57;;;8.47;;
13406;SDS011;6774;48.208;10.766;2022-12-07T07:28:51;9.30;;;8.47;;
13406;SDS011;6774;48.208;10.766;2022-12-07T07:31:19;9.10;;;8.33;;
13406;SDS011;6774;48.208;10.766;2022-12-07T07:33:47;8.13;;;7.43;;
13406;SDS011;6774;48.208;10.766;2022-12-07T07:36:15;8.50;;;7.73;;
13406;SDS011;6774;48.208;10.766;2022-12-07T07:38:43;9.00;;;8.30;;
13406;SDS011;6774;48.208;10.766;2022-12-07T07:41:11;7.73;;;6.97;;
13406;SDS011;6774;48.208;10.766;2022-12-07T07:43:39;8.80;;;8.03;;
13406;SDS011;6774;48.208;10.766;2022-12-07T07:46:07;8.50;;;7.70;;
13406;SDS011;6774;48.208;10.766;2022-12-07T07:48:35;11.53;;;10.53;;
13406;SDS011;6774;48.208;10.766;2022-12-07T07:51:05;12.47;;;11.37;;
13406;SDS011;6774;48.208;10.766;2022-12-07T07:53:33;9.77;;;8.43;;
13406;SDS011;6774;48.208;10.766;2022-12-07T07:56:01;11.00;;;9.20;;
13406;SDS011;6774;48.208;10.766;2022-12-07T07:58:28;9.20;;;8.30;;
13406;SDS011;6774;48.208;10.766;2022-12-07T08:00:58;8.33;;;7.50;;
13406;SDS011;6774;48.208;10.766;2022-12-07T08:03:31;10.23;;;9.33;;
13406;SDS011;6774;48.208;10.766;2022-12-07T08:05:59;8.70;;;7.90;;
13406;SDS011;6774;48.208;10.766;2022-12-07T08:08:26;10.87;;;9.93;;
13406;SDS011;6774;48.208;10.766;2022-12-07T08:10:55;8.63;;;7.93;;
13406;SDS011;6774;48.208;10.766;2022-12-07T08:13:23;8.30;;;7.60;;
13406;SDS011;6774;48.208;10.766;2022-12-07T08:15:58;10.23;;;9.33;;
13406;SDS011;6774;48.208;10.766;2022-12-07T08:18:34;8.47;;;7.67;;
13406;SDS011;6774;48.208;10.766;2022-12-07T08:21:02;11.40;;;10.40;;
13406;SDS011;6774;48.208;10.766;2022-12-07T08:23:31;10.43;;;9.57;;
13406;SDS011;6774;48.208;10.766;2022-12-07T08:26:06;10.10;;;9.10;;
13406;SDS011;6774;48.208;10.766;2022-12-07T08:28:35;9.80;;;8.87;;
13406;SDS011;6774;48.208;10.766;2022-12-07T08:31:06;10.03;;;9.23;;
13406;SDS011;6774;48.208;10.766;2022-12-07T08:33:35;9.43;;;8.53;;
13406;SDS011;6774;48.208;10.766;2022-12-07T08:36:04;9.83;;;8.83;;
13406;SDS011;6774;48.208;10.766;2022-12-07T08:38:34;11.60;;;10.17;;
13406;SDS011;6774;48.208;10.766;2022-12-07T08:41:03;10.47;;;8.67;;
13406;SDS011;6774;48.208;10.766;2022-12-07T08:43:31;8.60;;;7.70;;
13406;SDS011;6774;48.208;10.766;2022-12-07T08:46:03;10.83;;;9.83;;
13406;SDS011;6774;48.208;10.766;2022-12-07T08:48:35;9.97;;;8.87;;
13406;SDS011;6774;48.208;10.766;2022-12-07T08:51:06;9.83;;;8.93;;
13406;SDS011;6774;48.208;10.766;2022-12-07T08:53:35;11.87;;;10.63;;
13406;SDS011;6774;48.208;10.766;2022-12-07T08:56:05;9.83;;;9.00;;
13406;SDS011;6774;48.208;10.766;2022-12-07T08:58:34;11.23;;;9.93;;
13406;SDS011;6774;48.208;10.766;2022-12-07T09:01:05;8.10;;;7.40;;
13406;SDS011;6774;48.208;10.766;2022-12-07T09:03:33;10.37;;;9.47;;
13406;SDS011;6774;48.208;10.766;2022-12-07T09:06:01;12.07;;;9.27;;
13406;SDS011;6774;48.208;10.766;2022-12-07T09:08:29;9.63;;;8.83;;
13406;SDS011;6774;48.208;10.766;2022-12-07T09:11:00;8.07;;;7.37;;
13406;SDS011;6774;48.208;10.766;2022-12-07T09:13:28;8.13;;;7.43;;
13406;SDS011;6774;48.208;10.766;2022-12-07T09:15:55;8.57;;;7.73;;
13406;SDS011;6774;48.208;10.766;2022-12-07T09:18:25;8.50;;;7.73;;
13406;SDS011;6774;48.208;10.766;2022-12-07T09:20:53;9.57;;;8.70;;
13406;SDS011;6774;48.208;10.766;2022-12-07T09:23:21;8.90;;;8.03;;
13406;SDS011;6774;48.208;10.766;2022-12-07T09:25:48;8.33;;;7.60;;
13406;SDS011;6774;48.208;10.766;2022-12-07T09:28:16;9.70;;;8.03;;
13406;SDS011;6774;48.208;10.766;2022-12-07T09:30:45;8.33;;;7.63;;
13406;SDS011;6774;48.208;10.766;2022-12-07T09:33:35;6.87;;;6.27;;
13406;SDS011;6774;48.208;10.766;2022-12-07T09:36:02;7.57;;;6.77;;
13406;SDS011;6774;48.208;10.766;2022-12-07T09:38:31;6.77;;;6.27;;
13406;SDS011;6774;48.208;10.766;2022-12-07T09:41:03;7.53;;;6.93;;
13406;SDS011;6774;48.208;10.766;2022-12-07T09:43:33;8.10;;;7.00;;
13406;SDS011;6774;48.208;10.766;2022-12-07T09:46:03;6.97;;;6.37;;
13406;SDS011;6774;48.208;10.766;2022-12-07T09:48:32;8.00;;;7.37;;
13406;SDS011;6774;48.208;10.766;2022-12-07T09:51:09;7.83;;;7.13;;
13406;SDS011;6774;48.208;10.766;2022-12-07T09:53:48;7.70;;;6.90;;
13406;SDS011;6774;48.208;10.766;2022-12-07T09:56:18;7.17;;;6.57;;
13406;SDS011;6774;48.208;10.766;2022-12-07T09:58:47;7.47;;;6.70;;
13406;SDS011;6774;48.208;10.766;2022-12-07T10:01:17;8.10;;;7.50;;
13406;SDS011;6774;48.208;10.766;2022-12-07T10:03:48;6.43;;;5.83;;
13406;SDS011;6774;48.208;10.766;2022-12-07T10:06:19;7.93;;;7.20;;
13406;SDS011;6774;48.208;10.766;2022-12-07T10:08:47;7.00;;;6.50;;
13406;SDS011;6774;48.208;10.766;2022-12-07T10:11:15;6.43;;;5.93;;
13406;SDS011;6774;48.208;10.766;2022-12-07T10:13:44;5.70;;;5.20;;
13406;SDS011;6774;48.208;10.766;2022-12-07T10:19:19;4.60;;;4.23;;
13406;SDS011;6774;48.208;10.766;2022-12-07T10:22:03;5.03;;;4.53;;
13406;SDS011;6774;48.208;10.766;2022-12-07T10:24:38;5.13;;;4.53;;
13406;SDS011;6774;48.208;10.766;2022-12-07T10:27:17;5.40;;;4.77;;
13406;SDS011;6774;48.208;10.766;2022-12-07T10:29:47;5.53;;;4.93;;
13406;SDS011;6774;48.208;10.766;2022-12-07T10:32:28;4.37;;;3.87;;
13406;SDS011;6774;48.208;10.766;2022-12-07T10:35:19;4.97;;;4.57;;
13406;SDS011;6774;48.208;10.766;2022-12-07T10:37:50;5.97;;;5.50;;
13406;SDS011;6774;48.208;10.766;2022-12-07T10:40:24;5.70;;;5.20;;
13406;SDS011;6774;48.208;10.766;2022-12-07T10:43:00;7.00;;;6.40;;
13406;SDS011;6774;48.208;10.766;2022-12-07T10:45:28;5.87;;;5.40;;
13406;SDS011;6774;48.208;10.766;2022-12-07T10:47:58;5.07;;;4.50;;
13406;SDS011;6774;48.208;10.766;2022-12-07T10:50:42;4.87;;;4.47;;
13406;SDS011;6774;48.208;10.766;2022-12-07T10:53:36;5.70;;;5.07;;
13406;SDS011;6774;48.208;10.766;2022-12-07T10:56:19;4.97;;;4.57;;
13406;SDS011;6774;48.208;10.766;2022-12-07T10:59:02;5.23;;;4.77;;
13406;SDS011;6774;48.208;10.766;2022-12-07T11:01:45;5.90;;;5.43;;
13406;SDS011;6774;48.208;10.766;2022-12-07T11:04:21;5.83;;;5.37;;
13406;SDS011;6774;48.208;10.766;2022-12-07T11:06:58;5.50;;;5.10;;
13406;SDS011;6774;48.208;10.766;2022-12-07T11:09:41;5.13;;;4.73;;
13406;SDS011;6774;48.208;10.766;2022-12-07T11:12:39;4.90;;;4.53;;
13406;SDS011;6774;48.208;10.766;2022-12-07T11:15:17;5.57;;;5.03;;
13406;SDS011;6774;48.208;10.766;2022-12-07T11:17:48;6.00;;;4.80;;
13406;SDS011;6774;48.208;10.766;2022-12-07T11:20:29;6.13;;;5.63;;
13406;SDS011;6774;48.208;10.766;2022-12-07T11:23:11;4.07;;;3.77;;
13406;SDS011;6774;48.208;10.766;2022-12-07T11:25:49;4.83;;;4.13;;
13406;SDS011;6774;48.208;10.766;2022-12-07T11:28:28;5.13;;;4.73;;
13406;SDS011;6774;48.208;10.766;2022-12-07T11:31:10;3.70;;;3.47;;
13406;SDS011;6774;48.208;10.766;2022-12-07T11:33:43;4.70;;;4.40;;
13406;SDS011;6774;48.208;10.766;2022-12-07T11:36:17;4.53;;;4.03;;
13406;SDS011;6774;48.208;10.766;2022-12-07T11:39:00;4.40;;;4.10;;
13406;SDS011;6774;48.208;10.766;2022-12-07T11:41:34;4.67;;;4.23;;
13406;SDS011;6774;48.208;10.766;2022-12-07T11:44:05;4.53;;;4.23;;
13406;SDS011;6774;48.208;10.766;2022-12-07T11:46:45;3.27;;;3.03;;
13406;SDS011;6774;48.208;10.766;2022-12-07T11:49:19;4.90;;;4.30;;
13406;SDS011;6774;48.208;10.766;2022-12-07T11:51:51;4.03;;;3.70;;
13406;SDS011;6774;48.208;10.766;2022-12-07T11:54:23;5.93;;;4.20;;
13406;SDS011;6774;48.208;10.766;2022-12-07T11:56:57;4.60;;;4.20;;
13406;SDS011;6774;48.208;10.766;2022-12-07T11:59:32;5.93;;;5.43;;
13406;SDS011;6774;48.208;10.766;2022-12-07T12:02:07;5.10;;;4.70;;
13406;SDS011;6774;48.208;10.766;2022-12-07T12:04:45;5.03;;;4.63;;
13406;SDS011;6774;48.208;10.766;2022-12-07T12:07:19;4.47;;;4.10;;
13406;SDS011;6774;48.208;10.766;2022-12-07T12:10:15;4.63;;;4.33;;
13406;SDS011;6774;48.208;10.766;2022-12-07T12:16:17;4.73;;;4.43;;
13406;SDS011;6774;48.208;10.766;2022-12-07T12:19:07;7.07;;;4.03;;
13406;SDS011;6774;48.208;10.766;2022-12-07T12:21:46;5.27;;;4.73;;
13406;SDS011;6774;48.208;10.766;2022-12-07T12:24:23;5.77;;;4.80;;
13406;SDS011;6774;48.208;10.766;2022-12-07T12:26:55;4.33;;;4.03;;
13406;SDS011;6774;48.208;10.766;2022-12-07T12:29:31;4.93;;;4.60;;
13406;SDS011;6774;48.208;10.766;2022-12-07T12:32:06;3.90;;;3.60;;
13406;SDS011;6774;48.208;10.766;2022-12-07T12:34:41;5.27;;;4.20;;
13406;SDS011;6774;48.208;10.766;2022-12-07T12:37:43;4.10;;;3.80;;
13406;SDS011;6774;48.208;10.766;2022-12-07T12:55:20;5.50;;;5.10;;
13406;SDS011;6774;48.208;10.766;2022-12-07T13:13:34;5.43;;;3.33;;
13406;SDS011;6774;48.208;10.766;2022-12-07T13:25:09;4.83;;;4.43;;
13406;SDS011;6774;48.208;10.766;2022-12-07T13:27:40;4.37;;;3.97;;
13406;SDS011;6774;48.208;10.766;2022-12-07T13:30:13;3.63;;;3.33;;
13406;SDS011;6774;48.208;10.766;2022-12-07T13:32:42;5.53;;;5.10;;
13406;SDS011;6774;48.208;10.766;2022-12-07T13:35:28;3.93;;;3.57;;
13406;SDS011;6774;48.208;10.766;2022-12-07T13:37:58;3.67;;;3.47;;
13406;SDS011;6774;48.208;10.766;2022-12-07T13:40:29;5.10;;;4.80;;
13406;SDS011;6774;48.208;10.766;2022-12-07T13:43:15;4.93;;;4.40;;
13406;SDS011;6774;48.208;10.766;2022-12-07T13:45:44;4.63;;;4.23;;
13406;SDS011;6774;48.208;10.766;2022-12-07T13:48:26;4.90;;;4.50;;
13406;SDS011;6774;48.208;10.766;2022-12-07T13:50:59;5.90;;;3.97;;
13406;SDS011;6774;48.208;10.766;2022-12-07T13:53:29;4.27;;;4.00;;
13406;SDS011;6774;48.208;10.766;2022-12-07T13:55:58;4.57;;;4.17;;
13406;SDS011;6774;48.208;10.766;2022-12-07T13:58:27;4.37;;;4.07;;
13406;SDS011;6774;48.208;10.766;2022-12-07T14:00:58;5.53;;;5.17;;
13406;SDS011;6774;48.208;10.766;2022-12-07T14:03:28;4.20;;;3.90;;
13406;SDS011;6774;48.208;10.766;2022-12-07T14:09:07;3.87;;;3.67;;
13406;SDS011;6774;48.208;10.766;2022-12-07T14:11:42;4.80;;;4.50;;
13406;SDS011;6774;48.208;10.766;2022-12-07T14:14:10;4.60;;;4.20;;
13406;SDS011;6774;48.208;10.766;2022-12-07T14:16:54;4.93;;;4.53;;
13406;SDS011;6774;48.208;10.766;2022-12-07T14:19:40;5.33;;;4.83;;
13406;SDS011;6774;48.208;10.766;2022-12-07T14:25:19;5.77;;;5.00;;
13406;SDS011;6774;48.208;10.766;2022-12-07T14:27:49;5.77;;;5.30;;
13406;SDS011;6774;48.208;10.766;2022-12-07T14:30:22;5.13;;;4.73;;
13406;SDS011;6774;48.208;10.766;2022-12-07T14:32:53;6.57;;;5.27;;
13406;SDS011;6774;48.208;10.766;2022-12-07T14:35:23;6.83;;;5.37;;
13406;SDS011;6774;48.208;10.766;2022-12-07T14:37:51;4.87;;;4.37;;
13406;SDS011;6774;48.208;10.766;2022-12-07T14:40:21;4.67;;;4.27;;
13406;SDS011;6774;48.208;10.766;2022-12-07T14:42:51;4.33;;;4.03;;
13406;SDS011;6774;48.208;10.766;2022-12-07T14:45:22;3.63;;;3.43;;
13406;SDS011;6774;48.208;10.766;2022-12-07T14:47:50;4.00;;;3.73;;
13406;SDS011;6774;48.208;10.766;2022-12-07T14:50:40;4.03;;;3.73;;
13406;SDS011;6774;48.208;10.766;2022-12-07T14:53:31;4.07;;;3.77;;
13406;SDS011;6774;48.208;10.766;2022-12-07T14:56:04;3.87;;;3.53;;
13406;SDS011;6774;48.208;10.766;2022-12-07T14:58:33;4.20;;;3.67;;
13406;SDS011;6774;48.208;10.766;2022-12-07T15:01:01;5.70;;;5.37;;
13406;SDS011;6774;48.208;10.766;2022-12-07T15:03:29;3.87;;;3.57;;
13406;SDS011;6774;48.208;10.766;2022-12-07T15:05:57;4.43;;;4.10;;
13406;SDS011;6774;48.208;10.766;2022-12-07T15:08:25;3.07;;;2.87;;
13406;SDS011;6774;48.208;10.766;2022-12-07T15:10:53;4.37;;;4.07;;
13406;SDS011;6774;48.208;10.766;2022-12-07T15:13:22;2.80;;;2.60;;
13406;SDS011;6774;48.208;10.766;2022-12-07T15:16:08;3.77;;;3.40;;
13406;SDS011;6774;48.208;10.766;2022-12-07T15:18:38;3.67;;;3.37;;
13406;SDS011;6774;48.208;10.766;2022-12-07T15:21:18;5.33;;;4.93;;
13406;SDS011;6774;48.208;10.766;2022-12-07T15:23:46;4.30;;;4.00;;
13406;SDS011;6774;48.208;10.766;2022-12-07T15:26:14;3.73;;;3.27;;
13406;SDS011;6774;48.208;10.766;2022-12-07T15:28:43;5.23;;;4.83;;
13406;SDS011;6774;48.208;10.766;2022-12-07T15:31:11;4.17;;;3.87;;
13406;SDS011;6774;48.208;10.766;2022-12-07T15:33:59;3.83;;;3.37;;
13406;SDS011;6774;48.208;10.766;2022-12-07T15:36:28;3.73;;;3.43;;
13406;SDS011;6774;48.208;10.766;2022-12-07T15:38:58;2.30;;;2.10;;
13406;SDS011;6774;48.208;10.766;2022-12-07T15:41:41;4.07;;;3.73;;
13406;SDS011;6774;48.208;10.766;2022-12-07T15:44:11;6.90;;;5.40;;
13406;SDS011;6774;48.208;10.766;2022-12-07T15:46:57;5.77;;;5.27;;
13406;SDS011;6774;48.208;10.766;2022-12-07T15:49:25;6.00;;;5.43;;
13406;SDS011;6774;48.208;10.766;2022-12-07T15:51:54;5.27;;;4.87;;
13406;SDS011;6774;48.208;10.766;2022-12-07T15:54:23;8.10;;;7.33;;
13406;SDS011;6774;48.208;10.766;2022-12-07T15:56:51;5.77;;;5.23;;
13406;SDS011;6774;48.208;10.766;2022-12-07T15:59:21;6.10;;;5.60;;
13406;SDS011;6774;48.208;10.766;2022-12-07T16:01:50;7.00;;;6.40;;
13406;SDS011;6774;48.208;10.766;2022-12-07T16:04:18;6.33;;;5.70;;
13406;SDS011;6774;48.208;10.766;2022-12-07T16:06:46;5.70;;;5.23;;
13406;SDS011;6774;48.208;10.766;2022-12-07T16:09:14;4.50;;;4.10;;